Terminal Aerodrome Forecast
Issued by NWS

Home | Current Version | Previous Version | Text Only | Print | Product List | Glossary On
Versions: 1 2 3 4 5 6 7 8 9 10 11 12
000
FTUS41 KBTV 211121
TAFMPV
TAF
KMPV 211121Z 2112/2212 VRB03KT P6SM FEW200
     FM211600 17007KT P6SM SCT150
     FM220100 17008KT P6SM VCSH BKN080
     FM220500 18005KT P6SM -SHRAPL BKN030
     FM220800 18005KT P6SM BKN030=

USA.gov is the U.S. government's official web portal to all federal, state and local government web resources and services.